Terminal Aerodrome Forecast
Issued by NWS

Home | Current Version | Previous Version | Text Only | Print | Product List | Glossary On
Versions: 1 2 3 4 5 6 7 8 9 10 11 12
000
FTUS45 KGJT 192323
TAFVEL
TAF
KVEL 192323Z 2000/2024 27003KT P6SM SCT120
     FM201700 24007KT P6SM FEW080 FEW250
     FM201800 21010KT P6SM FEW080 SCT200
     FM202000 23015G26KT P6SM FEW070 SCT200=

USA.gov is the U.S. government's official web portal to all federal, state and local government web resources and services.